Tide Navigator — PCJP — position and weather

sailwx.info

Track history (hours):
 
Tides and Currents Weather Stations Pressure Air Temp Water Temp Dewpoint Dewpoint Depression Visibility Wind Speed Wind Dir Waves Ship Positions

Tide Navigator

Last reported at 2017-Sep-20 11:05 UTC. Time now 2017-Sep-24 04:55 UTC.
Position N 35°25' W 007°44'.

Length 118 m; draft 7.3 m.

Type: Cargo ship. MMSI: 245086000.

Date/timePositionNaut miles runAvg speedWind from/ knotsBaromVisibWave heightAir tempDewpointWater temp
2017-Sep-20 11:05N 35°25' W 007°44'110.9
2017-Sep-20 11:00N 35°25' W 007°43'610.8
2017-Sep-20 10:29N 35°28' W 007°37'2311.3
2017-Sep-20 08:24N 35°37' W 007°10'511.2
2017-Sep-20 08:00N 35°39' W 007°05'611.0
2017-Sep-20 07:28N 35°41' W 006°58'511.4
2017-Sep-20 07:00N 35°43' W 006°53'1111.6
2017-Sep-20 06:01N 35°48' W 006°40'1611.3
2017-Sep-20 04:38N 35°54' W 006°22'1310.0
2017-Sep-20 03:20N 35°57' W 006°07'5 9.8
2017-Sep-20 02:52N 35°57' W 006°01'410.1
2017-Sep-20 02:31N 35°57' W 005°56'810.4
2017-Sep-20 01:43N 35°57' W 005°46'311.9
2017-Sep-20 01:29N 35°57' W 005°43'611.1
2017-Sep-20 00:54N 35°57' W 005°35'410.4
2017-Sep-20 00:30N 35°58' W 005°30'5 9.7
2017-Sep-20 00:01N 35°60' W 005°24'4 8.9
2017-Sep-19 23:31N 35°57' W 005°20'3 6.1
2017-Sep-19 22:58N 35°54' W 005°18'0 0.0
2017-Sep-19 22:25N 35°54' W 005°18'0 0.0
2017-Sep-19 21:58N 35°54' W 005°18'0 0.0
2017-Sep-19 21:28N 35°54' W 005°18'0 0.0
2017-Sep-19 20:58N 35°54' W 005°18'0 0.0
2017-Sep-19 20:28N 35°54' W 005°18'0 0.0
2017-Sep-19 19:58N 35°54' W 005°18'0 0.0
2017-Sep-19 19:28N 35°54' W 005°18'0 0.0
2017-Sep-19 18:58N 35°54' W 005°18'0 0.0
2017-Sep-19 18:28N 35°54' W 005°18'0 0.0
2017-Sep-19 18:00N 35°54' W 005°18'1 1.9
2017-Sep-19 17:30N 35°55' W 005°19'1 1.9
2017-Sep-19 17:00N 35°55' W 005°20'1 2.8
2017-Sep-19 16:30N 35°56' W 005°18'2 4.7
2017-Sep-19 16:00N 35°56' W 005°15'4 8.7
2017-Sep-19 15:30N 35°57' W 005°10'18810.3
2017-Sep-18 21:17N 37°04' W 001°31'1811.8
2017-Sep-18 19:47N 37°17' W 001°17'311.4
2017-Sep-18 19:30N 37°20' W 001°14'911.3
2017-Sep-18 18:45N 37°26' W 001°07'10 0.8
2017-Sep-18 06:09N 37°34' W 000°59'2 4.3
2017-Sep-18 05:47N 37°33' W 000°59'410.8
2017-Sep-18 05:25N 37°29' W 000°57'410.6
2017-Sep-18 05:00N 37°27' W 000°52'611.2
2017-Sep-18 04:30N 37°27' W 000°45'1011.2
2017-Sep-18 03:38N 37°28' W 000°33'211.1
2017-Sep-18 03:25N 37°28' W 000°30'511.0
2017-Sep-18 02:56N 37°29' W 000°23'511.1
2017-Sep-18 02:30N 37°29' W 000°17'712.2
2017-Sep-18 01:53N 37°29' W 000°08'612.2
2017-Sep-18 01:24N 37°30' W 000°00'712.1
2017-Sep-18 00:50N 37°30' E 000°08'712.0
2017-Sep-18 00:13N 37°31' E 000°18'312.0
2017-Sep-17 23:59N 37°31' E 000°21'612.0
2017-Sep-17 23:28N 37°32' E 000°29'45912.4
2017-Sep-16 10:21N 38°08' E 010°09'1312.0
2017-Sep-16 09:15N 38°09' E 010°25'311.7
2017-Sep-16 09:00N 38°09' E 010°29'612.0
2017-Sep-16 08:30N 38°10' E 010°37'611.8
2017-Sep-16 08:00N 38°10' E 010°44'2312.2
2017-Sep-16 06:04N 38°12' E 011°14'112.0
2017-Sep-16 06:00N 38°12' E 011°15'2611.6
2017-Sep-16 03:47N 38°14' E 011°48'1411.7
2017-Sep-16 02:36N 38°15' E 012°05'211.9
2017-Sep-16 02:27N 38°15' E 012°07'2112.1
2017-Sep-16 00:45N 38°17' E 012°34'413.1
2017-Sep-16 00:26N 38°17' E 012°39'612.7
2017-Sep-15 23:57N 38°18' E 012°47'612.4
2017-Sep-15 23:30N 38°18' E 012°54'612.3
2017-Sep-15 23:00N 38°18' E 013°02'612.3
2017-Sep-15 22:30N 38°18' E 013°09'612.7
2017-Sep-15 22:00N 38°18' E 013°17'612.8
2017-Sep-15 21:31N 38°18' E 013°26'612.5
2017-Sep-15 21:00N 38°19' E 013°34'612.3
2017-Sep-15 20:30N 38°19' E 013°41'612.4
2017-Sep-15 20:01N 38°19' E 013°49'612.3
2017-Sep-15 19:31N 38°19' E 013°57'712.6
2017-Sep-15 18:59N 38°19' E 014°05'612.8
2017-Sep-15 18:30N 38°19' E 014°13'612.8
2017-Sep-15 18:01N 38°20' E 014°21'612.9
2017-Sep-15 17:31N 38°20' E 014°30'612.8
2017-Sep-15 17:00N 38°20' E 014°38'612.6
2017-Sep-15 16:31N 38°20' E 014°46'612.5
2017-Sep-15 16:01N 38°20' E 014°54'712.9
2017-Sep-15 15:30N 38°20' E 015°02'612.9
2017-Sep-15 15:00N 38°21' E 015°10'612.8
2017-Sep-15 14:30N 38°21' E 015°18'612.5
2017-Sep-15 14:00N 38°21' E 015°26'612.6
2017-Sep-15 13:31N 38°21' E 015°34'611.5
2017-Sep-15 13:00N 38°19' E 015°41'5 9.5
2017-Sep-15 12:30N 38°15' E 015°39'510.7
2017-Sep-15 12:01N 38°10' E 015°36'510.0
2017-Sep-15 11:30N 38°05' E 015°35'510.2
2017-Sep-15 11:01N 37°60' E 015°35'510.6
2017-Sep-15 10:30N 37°55' E 015°39'612.1
2017-Sep-15 10:00N 37°51' E 015°44'612.5
2017-Sep-15 09:30N 37°51' E 015°52'8312.0
2017-Sep-15 02:35N 38°44' E 017°13'312.4
2017-Sep-15 02:21N 38°46' E 017°16'813.0
2017-Sep-15 01:45N 38°52' E 017°23'313.2
2017-Sep-15 01:30N 38°54' E 017°26'1112.7
2017-Sep-15 00:40N 39°02' E 017°35'212.6
2017-Sep-15 00:30N 39°03' E 017°37'712.3
2017-Sep-14 23:58N 39°08' E 017°43'612.6
2017-Sep-14 23:30N 39°12' E 017°49'612.4
2017-Sep-14 23:00N 39°16' E 017°54'612.4
2017-Sep-14 22:30N 39°21' E 017°60'712.2
2017-Sep-14 21:58N 39°25' E 018°06'712.1
2017-Sep-14 21:24N 39°30' E 018°12'511.9
2017-Sep-14 20:59N 39°34' E 018°17'1111.8
2017-Sep-14 20:05N 39°41' E 018°26'412.4
2017-Sep-14 19:45N 39°44' E 018°30'313.1
2017-Sep-14 19:31N 39°47' E 018°32'713.5
2017-Sep-14 19:00N 39°53' E 018°34'30312.0
2017-Sep-13 17:48N 43°57' E 014°32'1012.2
2017-Sep-13 17:01N 44°05' E 014°24'012.5
2017-Sep-13 16:59N 44°06' E 014°24'612.4
2017-Sep-13 16:30N 44°11' E 014°20'712.3
2017-Sep-13 15:54N 44°17' E 014°14'512.2
2017-Sep-13 15:30N 44°21' E 014°12'612.3
2017-Sep-13 15:00N 44°27' E 014°10'612.3
2017-Sep-13 14:30N 44°34' E 014°08'612.5
2017-Sep-13 14:00N 44°40' E 014°07'612.1
2017-Sep-13 13:30N 44°46' E 014°07'912.2
2017-Sep-13 12:47N 44°54' E 014°12'412.5
2017-Sep-13 12:30N 44°57' E 014°13'712.2
2017-Sep-13 11:58N 45°04' E 014°14'612.5
2017-Sep-13 11:30N 45°09' E 014°15'612.8
2017-Sep-13 11:00N 45°15' E 014°20'  
Track history (hours):
 
Tides and Currents Weather Stations Pressure Air Temp Water Temp Dewpoint Dewpoint Depression Visibility Wind Speed Wind Dir Waves Ship Positions

Tide Navigator

Last reported at 2017-Sep-20 11:05 UTC. Time now 2017-Sep-24 04:55 UTC.
Position N 35°25' W 007°44'.

Length 118 m; draft 7.3 m.

Type: Cargo ship. MMSI: 245086000.

Date/timePositionNaut miles runAvg speedWind from/ knotsBaromVisibWave heightAir tempDewpointWater temp
2017-Sep-20 11:05N 35°25' W 007°44'110.9
2017-Sep-20 11:00N 35°25' W 007°43'610.8
2017-Sep-20 10:29N 35°28' W 007°37'2311.3
2017-Sep-20 08:24N 35°37' W 007°10'511.2
2017-Sep-20 08:00N 35°39' W 007°05'611.0
2017-Sep-20 07:28N 35°41' W 006°58'511.4
2017-Sep-20 07:00N 35°43' W 006°53'1111.6
2017-Sep-20 06:01N 35°48' W 006°40'1611.3
2017-Sep-20 04:38N 35°54' W 006°22'1310.0
2017-Sep-20 03:20N 35°57' W 006°07'5 9.8
2017-Sep-20 02:52N 35°57' W 006°01'410.1
2017-Sep-20 02:31N 35°57' W 005°56'810.4
2017-Sep-20 01:43N 35°57' W 005°46'311.9
2017-Sep-20 01:29N 35°57' W 005°43'611.1
2017-Sep-20 00:54N 35°57' W 005°35'410.4
2017-Sep-20 00:30N 35°58' W 005°30'5 9.7
2017-Sep-20 00:01N 35°60' W 005°24'4 8.9
2017-Sep-19 23:31N 35°57' W 005°20'3 6.1
2017-Sep-19 22:58N 35°54' W 005°18'0 0.0
2017-Sep-19 22:25N 35°54' W 005°18'0 0.0
2017-Sep-19 21:58N 35°54' W 005°18'0 0.0
2017-Sep-19 21:28N 35°54' W 005°18'0 0.0
2017-Sep-19 20:58N 35°54' W 005°18'0 0.0
2017-Sep-19 20:28N 35°54' W 005°18'0 0.0
2017-Sep-19 19:58N 35°54' W 005°18'0 0.0
2017-Sep-19 19:28N 35°54' W 005°18'0 0.0
2017-Sep-19 18:58N 35°54' W 005°18'0 0.0
2017-Sep-19 18:28N 35°54' W 005°18'0 0.0
2017-Sep-19 18:00N 35°54' W 005°18'1 1.9
2017-Sep-19 17:30N 35°55' W 005°19'1 1.9
2017-Sep-19 17:00N 35°55' W 005°20'1 2.8
2017-Sep-19 16:30N 35°56' W 005°18'2 4.7
2017-Sep-19 16:00N 35°56' W 005°15'4 8.7
2017-Sep-19 15:30N 35°57' W 005°10'18810.3
2017-Sep-18 21:17N 37°04' W 001°31'1811.8
2017-Sep-18 19:47N 37°17' W 001°17'311.4
2017-Sep-18 19:30N 37°20' W 001°14'911.3
2017-Sep-18 18:45N 37°26' W 001°07'10 0.8
2017-Sep-18 06:09N 37°34' W 000°59'2 4.3
2017-Sep-18 05:47N 37°33' W 000°59'410.8
2017-Sep-18 05:25N 37°29' W 000°57'410.6
2017-Sep-18 05:00N 37°27' W 000°52'611.2
2017-Sep-18 04:30N 37°27' W 000°45'1011.2
2017-Sep-18 03:38N 37°28' W 000°33'211.1
2017-Sep-18 03:25N 37°28' W 000°30'511.0
2017-Sep-18 02:56N 37°29' W 000°23'511.1
2017-Sep-18 02:30N 37°29' W 000°17'712.2
2017-Sep-18 01:53N 37°29' W 000°08'612.2
2017-Sep-18 01:24N 37°30' W 000°00'712.1
2017-Sep-18 00:50N 37°30' E 000°08'712.0
2017-Sep-18 00:13N 37°31' E 000°18'312.0
2017-Sep-17 23:59N 37°31' E 000°21'612.0
2017-Sep-17 23:28N 37°32' E 000°29'45912.4
2017-Sep-16 10:21N 38°08' E 010°09'1312.0
2017-Sep-16 09:15N 38°09' E 010°25'311.7
2017-Sep-16 09:00N 38°09' E 010°29'612.0
2017-Sep-16 08:30N 38°10' E 010°37'611.8
2017-Sep-16 08:00N 38°10' E 010°44'2312.2
2017-Sep-16 06:04N 38°12' E 011°14'112.0
2017-Sep-16 06:00N 38°12' E 011°15'2611.6
2017-Sep-16 03:47N 38°14' E 011°48'1411.7
2017-Sep-16 02:36N 38°15' E 012°05'211.9
2017-Sep-16 02:27N 38°15' E 012°07'2112.1
2017-Sep-16 00:45N 38°17' E 012°34'413.1
2017-Sep-16 00:26N 38°17' E 012°39'612.7
2017-Sep-15 23:57N 38°18' E 012°47'612.4
2017-Sep-15 23:30N 38°18' E 012°54'612.3
2017-Sep-15 23:00N 38°18' E 013°02'612.3
2017-Sep-15 22:30N 38°18' E 013°09'612.7
2017-Sep-15 22:00N 38°18' E 013°17'612.8
2017-Sep-15 21:31N 38°18' E 013°26'612.5
2017-Sep-15 21:00N 38°19' E 013°34'612.3
2017-Sep-15 20:30N 38°19' E 013°41'612.4
2017-Sep-15 20:01N 38°19' E 013°49'612.3
2017-Sep-15 19:31N 38°19' E 013°57'712.6
2017-Sep-15 18:59N 38°19' E 014°05'612.8
2017-Sep-15 18:30N 38°19' E 014°13'612.8
2017-Sep-15 18:01N 38°20' E 014°21'612.9
2017-Sep-15 17:31N 38°20' E 014°30'612.8
2017-Sep-15 17:00N 38°20' E 014°38'612.6
2017-Sep-15 16:31N 38°20' E 014°46'612.5
2017-Sep-15 16:01N 38°20' E 014°54'712.9
2017-Sep-15 15:30N 38°20' E 015°02'612.9
2017-Sep-15 15:00N 38°21' E 015°10'612.8
2017-Sep-15 14:30N 38°21' E 015°18'612.5
2017-Sep-15 14:00N 38°21' E 015°26'612.6
2017-Sep-15 13:31N 38°21' E 015°34'611.5
2017-Sep-15 13:00N 38°19' E 015°41'5 9.5
2017-Sep-15 12:30N 38°15' E 015°39'510.7
2017-Sep-15 12:01N 38°10' E 015°36'510.0
2017-Sep-15 11:30N 38°05' E 015°35'510.2
2017-Sep-15 11:01N 37°60' E 015°35'510.6
2017-Sep-15 10:30N 37°55' E 015°39'612.1
2017-Sep-15 10:00N 37°51' E 015°44'612.5
2017-Sep-15 09:30N 37°51' E 015°52'8312.0
2017-Sep-15 02:35N 38°44' E 017°13'312.4
2017-Sep-15 02:21N 38°46' E 017°16'813.0
2017-Sep-15 01:45N 38°52' E 017°23'313.2
2017-Sep-15 01:30N 38°54' E 017°26'1112.7
2017-Sep-15 00:40N 39°02' E 017°35'212.6
2017-Sep-15 00:30N 39°03' E 017°37'712.3
2017-Sep-14 23:58N 39°08' E 017°43'612.6
2017-Sep-14 23:30N 39°12' E 017°49'612.4
2017-Sep-14 23:00N 39°16' E 017°54'612.4
2017-Sep-14 22:30N 39°21' E 017°60'712.2
2017-Sep-14 21:58N 39°25' E 018°06'712.1
2017-Sep-14 21:24N 39°30' E 018°12'511.9
2017-Sep-14 20:59N 39°34' E 018°17'1111.8
2017-Sep-14 20:05N 39°41' E 018°26'412.4
2017-Sep-14 19:45N 39°44' E 018°30'313.1
2017-Sep-14 19:31N 39°47' E 018°32'713.5
2017-Sep-14 19:00N 39°53' E 018°34'30312.0
2017-Sep-13 17:48N 43°57' E 014°32'1012.2
2017-Sep-13 17:01N 44°05' E 014°24'012.5
2017-Sep-13 16:59N 44°06' E 014°24'612.4
2017-Sep-13 16:30N 44°11' E 014°20'712.3
2017-Sep-13 15:54N 44°17' E 014°14'512.2
2017-Sep-13 15:30N 44°21' E 014°12'612.3
2017-Sep-13 15:00N 44°27' E 014°10'612.3
2017-Sep-13 14:30N 44°34' E 014°08'612.5
2017-Sep-13 14:00N 44°40' E 014°07'612.1
2017-Sep-13 13:30N 44°46' E 014°07'912.2
2017-Sep-13 12:47N 44°54' E 014°12'412.5
2017-Sep-13 12:30N 44°57' E 014°13'712.2
2017-Sep-13 11:58N 45°04' E 014°14'612.5
2017-Sep-13 11:30N 45°09' E 014°15'612.8
2017-Sep-13 11:00N 45°15' E 014°20'  

Dump ship's entire track history